Time;durP1;ratioP1;P1;durP2;ratioP2;P2;SDS_P1;SDS_P2;PMS_P1;PMS_P2;Temp;Humidity;BMP_temperature;BMP_pressure;BME280_temperature;BME280_humidity;BME280_pressure;Samples;Min_cycle;Max_cycle;Signal;HPM_P1;HPM_P2
2022/03/15 00:06:43;;;;;;;;;;;;;;;18.17;49.00;102874.84;5276422;22;19931;-84
2022/03/15 00:09:08;;;;;;;;;;;;;;;18.16;48.84;102869.59;5020482;28;19913;-85
2022/03/15 00:11:34;;;;;;;;;;;;;;;18.16;48.84;102877.41;5021594;28;19977;-85
2022/03/15 00:14:02;;;;;;;;;;;;;;;18.16;48.85;102874.81;5021773;28;19977;-85
2022/03/15 00:19:05;;;;;;;;;;;;;;;18.16;48.77;102877.41;5036061;28;19948;-85
2022/03/15 00:21:32;;;;;;;;;;;;;;;18.15;49.04;102873.94;5196688;22;19932;-85
2022/03/15 00:23:59;;;;;;;;;;;;;;;18.15;48.73;102865.25;5023016;28;19936;-85
2022/03/15 00:26:25;;;;;;;;;;;;;;;18.15;48.85;102870.47;5023988;28;19933;-84
2022/03/15 00:28:50;;;;;;;;;;;;;;;18.14;48.80;102864.38;5024030;28;19924;-85
2022/03/15 00:31:34;;;;;;;;;;;;;;;18.14;48.85;102863.47;5039169;28;19905;-86
2022/03/15 00:34:01;;;;;;;;;;;;;;;18.15;48.61;102857.44;5023744;28;19902;-85
2022/03/15 00:39:41;;;;;;;;;;;;;;;18.13;48.75;102846.09;5041168;28;19996;-85
2022/03/15 00:45:31;;;;;;;;;;;;;;;18.13;48.72;102846.97;5041022;28;19932;-86
2022/03/15 00:54:41;;;;;;;;;;;;;;;18.13;48.83;102846.97;4980218;28;19922;-85
2022/03/15 00:57:40;;;;;;;;;;;;;;;18.12;48.67;102847.84;4980084;29;19918;-85
2022/03/15 01:03:29;;;;;;;;;;;;;;;18.11;48.75;102846.06;4980630;29;19933;-86
2022/03/15 01:06:20;;;;;;;;;;;;;;;18.11;48.72;102848.66;4979525;29;19927;-86
2022/03/15 01:08:54;;;;;;;;;;;;;;;18.11;48.80;102846.06;4964404;29;19926;-86
2022/03/15 01:11:32;;;;;;;;;;;;;;;18.11;48.60;102842.59;4971523;28;19909;-86
2022/03/15 01:14:16;;;;;;;;;;;;;;;18.09;48.66;102846.06;4963212;29;19949;-85
2022/03/15 01:16:47;;;;;;;;;;;;;;;18.10;48.58;102854.75;4965445;29;19957;-86
2022/03/15 01:19:53;;;;;;;;;;;;;;;18.09;48.72;102847.75;4952682;29;20072;-86
2022/03/15 01:22:41;;;;;;;;;;;;;;;18.10;48.74;102844.31;5032144;28;19960;-85
2022/03/15 01:27:52;;;;;;;;;;;;;;;18.09;48.73;102842.53;5199253;22;19925;-87
2022/03/15 01:30:18;;;;;;;;;;;;;;;18.08;48.67;102833.84;5022312;28;19928;-85
2022/03/15 01:32:43;;;;;;;;;;;;;;;18.09;48.67;102832.13;5022460;28;19898;-85
2022/03/15 01:35:13;;;;;;;;;;;;;;;18.09;48.68;102826.91;5038389;28;19898;-86
2022/03/15 01:40:42;;;;;;;;;;;;;;;18.08;48.53;102825.16;4979410;28;19920;-86
2022/03/15 01:43:26;;;;;;;;;;;;;;;18.08;48.67;102830.38;4962116;29;19926;-86
2022/03/15 01:46:13;;;;;;;;;;;;;;;18.07;48.66;102823.41;4962896;29;19915;-85
2022/03/15 01:51:51;;;;;;;;;;;;;;;18.06;48.60;102822.53;4959779;29;20010;-86
2022/03/15 01:54:21;;;;;;;;;;;;;;;18.07;48.44;102823.41;4944823;29;19983;-86
2022/03/15 02:00:16;;;;;;;;;;;;;;;18.06;48.56;102812.09;4960033;29;19938;-84
2022/03/15 02:21:28;;;;;;;;;;;;;;;18.03;48.54;102800.72;5546290;22;19918;-85
2022/03/15 02:50:33;;;;;;;;;;;;;;;17.98;48.42;102776.31;5079248;22;19910;-84
2022/03/15 02:52:58;;;;;;;;;;;;;;;17.98;48.23;102777.19;5023059;28;19913;-84
2022/03/15 03:00:41;;;;;;;;;;;;;;;17.97;48.33;102771.97;5492887;22;19925;-86
2022/03/15 03:06:03;;;;;;;;;;;;;;;17.96;48.47;102763.25;5482459;22;19992;-85
2022/03/15 03:08:48;;;;;;;;;;;;;;;17.96;48.17;102765.00;5003707;28;19932;-86
2022/03/15 03:14:34;;;;;;;;;;;;;;;17.95;48.17;102755.44;5037168;28;19903;-86
2022/03/15 03:17:24;;;;;;;;;;;;;;;17.94;48.06;102754.53;4977592;29;19987;-85
2022/03/15 03:20:35;;;;;;;;;;;;;;;17.94;48.19;102751.94;4920330;29;19971;-85
2022/03/15 03:35:10;;;;;;;;;;;;;;;17.92;48.16;102748.44;4906019;29;19947;-85
2022/03/15 03:40:18;;;;;;;;;;;;;;;17.92;48.17;102744.94;5967049;22;19910;-86
2022/03/15 03:42:43;;;;;;;;;;;;;;;17.91;47.98;102736.25;5020774;28;19921;-85
2022/03/15 03:45:09;;;;;;;;;;;;;;;17.92;48.11;102748.44;5020031;28;19913;-85
2022/03/15 03:47:35;;;;;;;;;;;;;;;17.91;48.05;102744.06;5020706;28;19924;-85
2022/03/15 03:50:08;;;;;;;;;;;;;;;17.91;48.21;102738.88;5020478;28;19953;-84
2022/03/15 03:52:33;;;;;;;;;;;;;;;17.91;47.88;102738.00;5037264;28;19929;-85
2022/03/15 03:55:01;;;;;;;;;;;;;;;17.90;48.18;102737.13;5020647;28;19973;-85
2022/03/15 03:57:27;;;;;;;;;;;;;;;17.87;48.05;102737.91;5021205;28;19906;-85
2022/03/15 03:59:57;;;;;;;;;;;;;;;17.87;47.83;102737.91;5041542;28;19920;-85
2022/03/15 04:15:47;;;;;;;;;;;;;;;17.87;47.99;102748.34;5198898;22;19926;-84
2022/03/15 04:23:53;;;;;;;;;;;;;;;17.86;47.88;102751.78;6091755;22;20937;-84
2022/03/15 04:26:18;;;;;;;;;;;;;;;17.86;47.94;102748.31;5023201;28;19909;-85
2022/03/15 04:28:44;;;;;;;;;;;;;;;17.85;47.76;102739.59;5024607;28;19904;-85
2022/03/15 04:31:09;;;;;;;;;;;;;;;17.85;47.90;102742.22;5024518;28;19897;-84
2022/03/15 04:33:35;;;;;;;;;;;;;;;17.85;47.83;102743.94;5024167;28;19913;-85
2022/03/15 04:36:00;;;;;;;;;;;;;;;17.86;47.76;102753.53;5023486;28;19917;-84
2022/03/15 04:38:28;;;;;;;;;;;;;;;17.84;47.51;102748.28;5007984;28;19906;-85
2022/03/15 04:40:54;;;;;;;;;;;;;;;17.85;47.90;102741.34;5023309;28;19914;-85
2022/03/15 04:43:20;;;;;;;;;;;;;;;17.84;47.83;102737.00;5023726;28;19930;-84
2022/03/15 04:48:53;;;;;;;;;;;;;;;17.84;47.86;102740.47;5040925;28;19921;-85
2022/03/15 04:51:27;;;;;;;;;;;;;;;17.84;47.84;102735.25;5040640;28;19925;-85
2022/03/15 04:59:32;;;;;;;;;;;;;;;17.83;47.60;102723.09;6186918;22;20892;-82
2022/03/15 05:01:58;;;;;;;;;;;;;;;17.84;47.80;102721.38;5048919;23;19932;-85
2022/03/15 05:04:23;;;;;;;;;;;;;;;17.83;47.88;102709.19;5020150;28;19913;-84
2022/03/15 05:06:48;;;;;;;;;;;;;;;17.83;47.54;102709.19;5019985;28;19965;-85
2022/03/15 05:09:14;;;;;;;;;;;;;;;17.82;47.50;102708.31;5018834;28;19898;-85
2022/03/15 05:14:46;;;;;;;;;;;;;;;17.81;47.69;102706.53;5019841;28;19936;-86
2022/03/15 05:17:22;;;;;;;;;;;;;;;17.81;47.81;102698.72;5017170;28;19941;-86
2022/03/15 05:20:18;;;;;;;;;;;;;;;17.81;47.85;102695.22;5014554;28;19918;-86
2022/03/15 05:34:16;;;;;;;;;;;;;;;17.79;47.67;102695.22;4276941;26;19929;-79
2022/03/15 05:36:43;;;;;;;;;;;;;;;17.79;47.65;102695.22;5044492;28;19928;-80
2022/03/15 05:39:11;;;;;;;;;;;;;;;17.80;47.61;102696.94;5040337;28;19905;-82
2022/03/15 05:41:39;;;;;;;;;;;;;;;17.80;47.49;102689.13;5027841;28;19913;-81
2022/03/15 05:44:05;;;;;;;;;;;;;;;17.79;47.50;102686.50;5043552;28;19924;-79
2022/03/15 05:46:31;;;;;;;;;;;;;;;17.78;47.58;102688.22;5025677;28;19917;-79
2022/03/15 05:48:56;;;;;;;;;;;;;;;17.79;47.63;102687.41;5042382;28;19924;-79
2022/03/15 05:51:21;;;;;;;;;;;;;;;17.78;47.59;102688.22;5006991;28;19918;-79
2022/03/15 05:53:47;;;;;;;;;;;;;;;17.79;47.68;102684.78;5011571;28;19952;-80
2022/03/15 05:56:18;;;;;;;;;;;;;;;17.78;47.65;102684.75;5046583;28;19916;-82
2022/03/15 05:58:59;;;;;;;;;;;;;;;17.78;47.61;102684.75;5039600;28;19914;-83
2022/03/15 06:01:27;;;;;;;;;;;;;;;17.78;47.58;102677.81;5055198;28;19921;-83
2022/03/15 06:22:13;;;;;;;;;;;;;;;17.85;47.33;102676.22;5807994;22;19924;-85
2022/03/15 06:24:38;;;;;;;;;;;;;;;17.85;47.30;102669.28;5083028;28;19924;-84
2022/03/15 06:27:04;;;;;;;;;;;;;;;17.86;47.38;102668.47;5083005;28;19935;-84
2022/03/15 06:29:30;;;;;;;;;;;;;;;17.86;47.20;102665.84;5797569;22;19923;-79
2022/03/15 07:27:04;;;;;;;;;;;;;;;17.89;46.64;102657.22;5033655;28;19926;-84
2022/03/15 07:29:34;;;;;;;;;;;;;;;17.88;46.64;102660.69;4996598;28;19918;-85
2022/03/15 07:32:03;;;;;;;;;;;;;;;17.89;46.41;102665.03;4996151;28;19909;-84
2022/03/15 07:34:47;;;;;;;;;;;;;;;17.91;46.72;102659.84;4980677;28;19926;-84
2022/03/15 07:40:39;;;;;;;;;;;;;;;17.92;46.61;102651.16;4997219;28;20009;-84
2022/03/15 07:43:07;;;;;;;;;;;;;;;17.93;46.39;102645.13;4981206;28;19899;-85
2022/03/15 07:45:40;;;;;;;;;;;;;;;17.92;46.71;102645.97;4980679;28;19914;-84
2022/03/15 07:51:27;;;;;;;;;;;;;;;17.93;46.42;102652.94;4996330;28;19925;-85
2022/03/15 07:54:20;;;;;;;;;;;;;;;17.91;46.54;102649.44;4976835;28;19918;-85
2022/03/15 07:56:53;;;;;;;;;;;;;;;17.92;46.66;102651.16;4960224;29;19977;-84
2022/03/15 08:02:30;;;;;;;;;;;;;;;17.91;46.57;102649.44;4977676;28;19922;-85
2022/03/15 08:08:18;;;;;;;;;;;;;;;17.93;46.56;102645.13;4977543;29;20010;-85
2022/03/15 08:10:45;;;;;;;;;;;;;;;17.94;46.59;102649.47;4975686;28;19921;-85
2022/03/15 08:13:13;;;;;;;;;;;;;;;17.95;46.54;102646.03;4976171;28;19914;-85
2022/03/15 08:15:55;;;;;;;;;;;;;;;17.96;46.47;102648.66;4975783;28;19903;-84
2022/03/15 08:18:57;;;;;;;;;;;;;;;17.97;46.44;102646.94;4940406;29;19915;-85
2022/03/15 08:21:44;;;;;;;;;;;;;;;17.99;46.36;102646.13;4974952;28;19914;-85
2022/03/15 08:27:13;;;;;;;;;;;;;;;18.05;46.12;102634.91;4957012;29;19955;-85
2022/03/15 08:29:43;;;;;;;;;;;;;;;18.10;46.08;102646.31;4910150;29;19903;-85
2022/03/15 08:32:17;;;;;;;;;;;;;;;18.14;46.13;102642.00;4968632;29;19918;-85
2022/03/15 08:35:16;;;;;;;;;;;;;;;18.16;45.92;102638.59;4963892;28;20393;-85
2022/03/15 08:37:50;;;;;;;;;;;;;;;18.19;45.89;102635.16;4961151;29;19919;-85
2022/03/15 08:40:22;;;;;;;;;;;;;;;18.33;45.51;102638.84;4963891;29;19910;-85
2022/03/15 08:43:16;;;;;;;;;;;;;;;18.56;45.11;102628.78;4976412;28;19987;-85
2022/03/15 08:51:11;;;;;;;;;;;;;;;18.48;45.39;102630.41;5656250;22;19910;-85
2022/03/15 08:53:36;;;;;;;;;;;;;;;18.42;45.49;102627.69;5023535;28;19932;-85
2022/03/15 08:56:02;;;;;;;;;;;;;;;18.38;45.55;102629.38;5023502;28;19902;-85
2022/03/15 08:58:28;;;;;;;;;;;;;;;18.36;45.41;102630.22;5023298;28;20023;-84
2022/03/15 09:00:53;;;;;;;;;;;;;;;18.28;45.56;102625.75;5023487;28;19898;-85
2022/03/15 09:03:22;;;;;;;;;;;;;;;18.27;45.63;102620.53;5023451;28;19898;-85
2022/03/15 09:05:47;;;;;;;;;;;;;;;18.24;45.80;102623.06;5040086;28;19921;-85
2022/03/15 09:08:13;;;;;;;;;;;;;;;18.24;45.63;102620.47;5022027;28;19987;-85
2022/03/15 09:10:39;;;;;;;;;;;;;;;18.26;45.57;102621.38;5022564;28;19920;-85
2022/03/15 09:13:07;;;;;;;;;;;;;;;18.33;45.42;102622.34;5040520;28;19909;-85
2022/03/15 09:15:36;;;;;;;;;;;;;;;18.42;45.22;102617.25;5023132;28;19922;-84
2022/03/15 09:18:02;;;;;;;;;;;;;;;18.47;45.08;102611.28;5040152;28;19959;-84
2022/03/15 09:20:27;;;;;;;;;;;;;;;18.52;45.01;102613.94;5040233;28;19913;-85
2022/03/15 09:22:54;;;;;;;;;;;;;;;18.64;44.60;102608.91;5023302;28;19985;-85
2022/03/15 09:25:20;;;;;;;;;;;;;;;18.63;44.75;102609.75;5024187;28;19928;-84
2022/03/15 09:27:46;;;;;;;;;;;;;;;18.64;44.93;102603.72;5040861;28;19949;-84
2022/03/15 09:30:12;;;;;;;;;;;;;;;18.68;44.98;102604.59;5040553;28;19965;-85
2022/03/15 09:32:38;;;;;;;;;;;;;;;18.63;45.06;102599.31;5040872;28;19922;-85
2022/03/15 09:35:03;;;;;;;;;;;;;;;18.58;45.32;102598.41;5023050;28;19913;-84
2022/03/15 09:42:40;;;;;;;;;;;;;;;18.52;45.42;102597.44;5348050;22;19940;-85
2022/03/15 09:45:06;;;;;;;;;;;;;;;18.54;45.33;102590.50;5022726;28;19901;-85
2022/03/15 09:47:32;;;;;;;;;;;;;;;18.60;45.24;102593.22;5023128;28;20064;-86
2022/03/15 09:50:01;;;;;;;;;;;;;;;18.60;45.10;102581.06;5023261;28;19897;-86
2022/03/15 09:52:27;;;;;;;;;;;;;;;18.58;45.26;102581.88;5022790;28;19941;-85
2022/03/15 09:54:54;;;;;;;;;;;;;;;18.55;45.33;102579.22;5023038;28;19912;-85
2022/03/15 09:57:20;;;;;;;;;;;;;;;18.50;45.45;102580.03;5023065;28;19921;-85
2022/03/15 09:59:47;;;;;;;;;;;;;;;18.51;45.28;102575.72;5022657;28;19905;-83
2022/03/15 10:02:13;;;;;;;;;;;;;;;18.46;45.44;102579.97;5022656;28;19898;-85
2022/03/15 10:04:38;;;;;;;;;;;;;;;18.44;45.53;102571.25;5022468;28;19898;-84
2022/03/15 10:07:04;;;;;;;;;;;;;;;18.44;45.28;102574.75;5039239;28;19912;-84
2022/03/15 10:09:30;;;;;;;;;;;;;;;18.43;45.29;102569.50;5022190;28;19898;-85
2022/03/15 10:11:56;;;;;;;;;;;;;;;18.43;45.34;102565.16;5021493;28;20001;-83
2022/03/15 10:14:21;;;;;;;;;;;;;;;18.42;45.31;102559.91;5022027;28;19920;-85
2022/03/15 10:16:53;;;;;;;;;;;;;;;18.41;45.21;102563.38;5021647;28;19905;-84
2022/03/15 10:19:19;;;;;;;;;;;;;;;18.39;45.42;102552.06;5039192;28;19920;-84
2022/03/15 10:21:52;;;;;;;;;;;;;;;18.38;45.40;102551.19;5022425;28;19921;-86
2022/03/15 10:24:22;;;;;;;;;;;;;;;18.38;45.46;102545.97;5021655;28;19913;-85
2022/03/15 10:26:48;;;;;;;;;;;;;;;18.36;45.40;102539.00;5022220;28;19941;-83
2022/03/15 10:29:15;;;;;;;;;;;;;;;18.36;45.34;102536.41;5021862;28;19913;-84
2022/03/15 10:31:41;;;;;;;;;;;;;;;18.35;45.57;102529.41;5021988;28;19905;-85
2022/03/15 10:47:52;;;;;;;;;;;;;;;18.32;45.32;102513.75;6059050;23;20957;-80
2022/03/15 10:59:51;;;;;;;;;;;;;;;18.30;45.47;102501.56;6026205;23;19982;-84
2022/03/15 11:14:59;;;;;;;;;;;;;;;18.29;45.20;102492.00;6064250;23;20596;31
2022/03/15 11:17:25;;;;;;;;;;;;;;;18.29;45.24;102492.00;4978558;28;19910;-85
2022/03/15 11:19:58;;;;;;;;;;;;;;;18.29;45.37;102485.88;4998805;28;19921;-85
2022/03/15 11:22:26;;;;;;;;;;;;;;;18.29;45.47;102483.28;4997073;28;19914;-84
2022/03/15 11:25:05;;;;;;;;;;;;;;;18.30;45.37;102490.25;4981356;28;19965;-85
2022/03/15 11:27:32;;;;;;;;;;;;;;;18.29;45.16;102481.56;4981104;28;19914;-85
2022/03/15 11:30:02;;;;;;;;;;;;;;;18.29;45.08;102481.56;4981918;28;19906;-85
2022/03/15 11:32:28;;;;;;;;;;;;;;;18.30;45.11;102478.09;4981460;28;19964;-84
2022/03/15 11:34:54;;;;;;;;;;;;;;;18.30;45.20;102478.09;4998234;28;19914;-84
2022/03/15 11:37:20;;;;;;;;;;;;;;;18.29;45.34;102471.16;4982041;28;19993;-84
2022/03/15 11:39:46;;;;;;;;;;;;;;;18.31;45.07;102473.75;4981497;28;19977;-84
2022/03/15 11:42:14;;;;;;;;;;;;;;;18.30;44.90;102466.81;4982081;28;19907;-85
2022/03/15 11:44:50;;;;;;;;;;;;;;;18.30;45.12;102467.66;4997952;28;19914;-84
2022/03/15 11:47:18;;;;;;;;;;;;;;;18.31;45.05;102463.31;4980992;28;19958;-84
2022/03/15 11:49:56;;;;;;;;;;;;;;;18.30;45.04;102459.84;4981372;28;19914;-84
2022/03/15 11:52:44;;;;;;;;;;;;;;;18.32;45.20;102453.81;4981209;28;19898;-84
2022/03/15 11:55:25;;;;;;;;;;;;;;;18.30;45.30;102454.66;4981595;28;19922;-83
2022/03/15 11:57:56;;;;;;;;;;;;;;;18.31;45.00;102455.50;4998446;28;19902;-85
2022/03/15 12:00:32;;;;;;;;;;;;;;;18.32;45.15;102453.81;4981395;28;19920;-85
2022/03/15 12:03:01;;;;;;;;;;;;;;;18.33;44.97;102442.50;4980717;28;20321;-85
2022/03/15 12:05:27;;;;;;;;;;;;;;;18.32;45.10;102435.56;4997209;28;19914;-84
2022/03/15 12:08:12;;;;;;;;;;;;;;;18.31;45.06;102434.66;4997583;28;19914;-85
2022/03/15 12:10:41;;;;;;;;;;;;;;;18.30;45.09;102428.59;4975087;28;20373;-79
2022/03/15 12:13:09;;;;;;;;;;;;;;;18.30;44.77;102431.19;4975607;28;19920;-79
2022/03/15 12:15:39;;;;;;;;;;;;;;;18.32;45.04;102419.94;4974710;28;19922;-79
2022/03/15 12:21:02;;;;;;;;;;;;;;;18.34;44.90;102411.25;4982360;28;19950;-79
2022/03/15 12:23:29;;;;;;;;;;;;;;;18.35;44.85;102404.31;4981503;28;20005;-78
2022/03/15 12:25:57;;;;;;;;;;;;;;;18.37;44.94;102405.22;4997456;28;19914;-84
2022/03/15 13:28:29;;;;;;;;;;;;;;;18.53;44.92;102385.41;5288684;23;19941;-84
2022/03/15 13:30:57;;;;;;;;;;;;;;;18.54;44.75;102379.34;5023137;28;19924;-84
2022/03/15 13:33:27;;;;;;;;;;;;;;;18.55;44.80;102379.34;5022660;28;19906;-85
2022/03/15 13:35:56;;;;;;;;;;;;;;;18.56;44.89;102378.50;5022867;28;19960;-84
2022/03/15 13:38:22;;;;;;;;;;;;;;;18.57;44.94;102376.75;5023266;28;19906;-84
2022/03/15 13:40:48;;;;;;;;;;;;;;;18.57;44.97;102380.22;5059429;23;19921;-85
2022/03/15 13:43:18;;;;;;;;;;;;;;;18.60;44.70;102379.41;5019103;28;19909;-84
2022/03/15 13:45:45;;;;;;;;;;;;;;;18.59;44.95;102368.09;5019627;28;19930;-83
2022/03/15 13:48:12;;;;;;;;;;;;;;;18.60;45.00;102362.03;5537379;23;19933;-83
2022/03/15 13:50:38;;;;;;;;;;;;;;;18.61;44.90;102348.13;5019441;28;19914;-84
2022/03/15 13:53:16;;;;;;;;;;;;;;;18.64;44.66;102344.66;5002881;28;19906;-84
2022/03/15 13:55:42;;;;;;;;;;;;;;;18.64;44.86;102336.84;5019225;28;19941;-85
2022/03/15 13:58:07;;;;;;;;;;;;;;;18.61;44.95;102327.25;5019399;28;19926;-84
2022/03/15 14:00:33;;;;;;;;;;;;;;;18.58;44.70;102331.59;5018793;28;19945;-85
2022/03/15 14:03:05;;;;;;;;;;;;;;;18.55;44.68;102326.31;5003228;28;19921;-84
2022/03/15 14:05:31;;;;;;;;;;;;;;;18.53;44.59;102333.25;5019146;28;19921;-85
2022/03/15 14:08:01;;;;;;;;;;;;;;;18.53;44.57;102334.16;5002672;28;19913;-85
2022/03/15 14:10:26;;;;;;;;;;;;;;;18.53;44.67;102334.16;5002040;28;19925;-84
2022/03/15 14:12:55;;;;;;;;;;;;;;;18.53;44.89;102335.88;5002874;28;19898;-85
2022/03/15 14:15:22;;;;;;;;;;;;;;;18.50;44.97;102336.72;5020036;28;19929;-84
2022/03/15 14:17:49;;;;;;;;;;;;;;;18.50;44.91;102334.09;5264920;23;20215;-84
2022/03/15 14:20:21;;;;;;;;;;;;;;;18.49;44.77;102333.25;5019321;28;19993;-85
2022/03/15 14:22:48;;;;;;;;;;;;;;;18.49;44.79;102342.81;5018317;28;19961;-85
2022/03/15 14:25:21;;;;;;;;;;;;;;;18.47;44.64;102337.56;5018050;28;19898;-84
2022/03/15 14:27:47;;;;;;;;;;;;;;;18.46;44.62;102334.94;5019320;28;19925;-85
2022/03/15 14:30:18;;;;;;;;;;;;;;;18.45;44.67;102333.19;5018478;28;19898;-84
2022/03/15 14:32:55;;;;;;;;;;;;;;;18.45;44.59;102335.81;5002145;28;19914;-85
2022/03/15 14:35:26;;;;;;;;;;;;;;;18.44;44.55;102327.13;5019039;28;19905;-83
2022/03/15 14:55:59;;;;;;;;;;;;;;;18.42;44.51;102315.81;6068387;23;20351;-81
2022/03/15 14:58:26;;;;;;;;;;;;;;;18.43;44.71;102314.06;4999813;28;19906;-84
2022/03/15 15:00:52;;;;;;;;;;;;;;;18.43;44.20;102317.53;5001524;28;19922;-85
2022/03/15 15:03:21;;;;;;;;;;;;;;;18.42;44.61;102312.28;5001267;28;19989;-84
2022/03/15 15:05:46;;;;;;;;;;;;;;;18.42;44.52;102323.63;5001406;28;19898;-83
2022/03/15 15:15:57;;;;;;;;;;;;;;;18.41;44.52;102298.41;5860444;23;19926;-83
2022/03/15 15:18:24;;;;;;;;;;;;;;;18.42;44.51;102297.56;5017528;28;19997;-84
2022/03/15 15:51:53;;;;;;;;;;;;;;;18.41;44.76;102305.34;6008969;23;19921;-85
2022/03/15 15:54:19;;;;;;;;;;;;;;;18.41;44.95;102306.22;5004681;28;19928;-84
2022/03/15 15:56:50;;;;;;;;;;;;;;;18.40;45.03;102301.88;5005619;28;19993;-84
2022/03/15 15:59:16;;;;;;;;;;;;;;;18.38;44.86;102297.47;5005339;28;19953;-84
2022/03/15 16:22:23;;;;;;;;;;;;;;;18.37;44.70;102294.00;6110866;23;20933;-80
2022/03/15 16:24:49;;;;;;;;;;;;;;;18.38;44.78;102297.47;5041434;28;19909;-84
2022/03/15 16:45:21;;;;;;;;;;;;;;;18.44;44.56;102313.19;5323302;23;19915;-82
2022/03/15 16:47:46;;;;;;;;;;;;;;;18.42;44.60;102310.59;5023386;28;19966;-83
2022/03/15 16:50:12;;;;;;;;;;;;;;;18.43;44.54;102306.25;5024343;28;19920;-83
2022/03/15 16:52:41;;;;;;;;;;;;;;;18.42;44.43;102307.06;5024899;28;19906;-84
2022/03/15 16:57:36;;;;;;;;;;;;;;;18.39;44.45;102310.53;5270299;23;20427;-80
2022/03/15 17:00:02;;;;;;;;;;;;;;;18.39;44.70;102301.84;4972221;28;19918;-80
2022/03/15 17:02:28;;;;;;;;;;;;;;;18.36;44.54;102305.31;4986598;28;19918;-77
2022/03/15 17:07:38;;;;;;;;;;;;;;;18.34;44.80;102307.00;4989331;28;20007;-81
2022/03/15 17:10:04;;;;;;;;;;;;;;;18.34;44.75;102313.97;4985132;28;19914;-77
2022/03/15 17:12:38;;;;;;;;;;;;;;;18.34;44.67;102316.56;5003873;28;19914;-77
2022/03/15 17:15:05;;;;;;;;;;;;;;;18.32;44.88;102326.09;4970737;28;20018;-77
2022/03/15 17:17:31;;;;;;;;;;;;;;;18.29;44.93;102330.44;4987394;28;19955;-77
2022/03/15 17:19:57;;;;;;;;;;;;;;;18.28;45.02;102333.88;4971786;28;19918;-78
2022/03/15 17:22:22;;;;;;;;;;;;;;;18.27;45.08;102333.88;4990062;28;19918;-78
2022/03/15 17:24:50;;;;;;;;;;;;;;;18.25;44.87;102335.59;4990477;28;19981;-77
2022/03/15 17:27:15;;;;;;;;;;;;;;;18.23;45.08;102343.38;4989001;28;20343;-78
2022/03/15 17:29:45;;;;;;;;;;;;;;;18.22;44.89;102346.81;4987949;28;19917;-77
2022/03/15 17:32:15;;;;;;;;;;;;;;;18.21;45.11;102352.91;4987552;28;20288;-78
2022/03/15 17:34:42;;;;;;;;;;;;;;;18.19;45.26;102358.97;5006451;28;19913;-78
2022/03/15 17:37:15;;;;;;;;;;;;;;;18.20;45.27;102361.56;4986531;28;19968;-79
2022/03/15 17:39:41;;;;;;;;;;;;;;;18.21;45.30;102360.72;4985353;28;20017;-78
2022/03/15 17:42:07;;;;;;;;;;;;;;;18.21;45.48;102358.13;4988212;28;20479;-77
2022/03/15 17:44:34;;;;;;;;;;;;;;;18.22;45.46;102364.19;4985634;28;19918;-81
2022/03/15 17:47:02;;;;;;;;;;;;;;;18.21;45.43;102360.72;5005723;28;19925;-78
2022/03/15 17:49:28;;;;;;;;;;;;;;;18.20;45.54;102366.78;4969640;28;19924;-78
2022/03/15 17:51:53;;;;;;;;;;;;;;;18.24;45.59;102370.31;4985793;28;19914;-81
2022/03/15 17:54:28;;;;;;;;;;;;;;;18.23;45.50;102365.97;4989657;28;19961;-83
2022/03/15 17:56:55;;;;;;;;;;;;;;;18.22;45.62;102366.81;4979006;28;19932;-78
2022/03/15 17:59:23;;;;;;;;;;;;;;;18.20;45.69;102371.13;5021961;28;19937;-78
2022/03/15 18:01:55;;;;;;;;;;;;;;;18.21;45.78;102376.34;5002262;28;19945;-79
2022/03/15 18:04:25;;;;;;;;;;;;;;;18.22;45.78;102380.69;5001882;28;19917;-79
2022/03/15 18:06:51;;;;;;;;;;;;;;;18.24;46.10;102371.16;5000187;28;19988;-77
2022/03/15 18:09:17;;;;;;;;;;;;;;;18.22;46.28;102378.09;5002551;28;19913;-78
2022/03/15 18:11:42;;;;;;;;;;;;;;;18.20;46.76;102377.19;5005947;28;20382;-81
2022/03/15 18:14:08;;;;;;;;;;;;;;;18.22;47.07;102383.31;4989525;28;20437;-78
2022/03/15 18:16:36;;;;;;;;;;;;;;;18.22;47.67;102377.22;5001546;28;20423;-79
2022/03/15 18:19:02;;;;;;;;;;;;;;;18.22;47.81;102385.03;5001435;28;19921;-78
2022/03/15 18:21:34;;;;;;;;;;;;;;;18.23;48.46;102381.59;5001449;28;19913;-78
2022/03/15 18:24:00;;;;;;;;;;;;;;;18.25;48.77;102385.97;4986150;28;19918;-78
2022/03/15 18:26:25;;;;;;;;;;;;;;;18.24;49.00;102379.00;4984676;28;20323;-78
2022/03/15 18:28:51;;;;;;;;;;;;;;;18.27;49.09;102388.59;4983853;28;20048;-78
2022/03/15 18:31:16;;;;;;;;;;;;;;;18.28;48.92;102400.75;5018286;28;20272;-78
2022/03/15 18:33:43;;;;;;;;;;;;;;;18.27;49.12;102393.81;4983866;28;20071;-78
2022/03/15 18:36:09;;;;;;;;;;;;;;;18.27;49.21;102392.06;5018227;28;19946;-78
2022/03/15 18:38:34;;;;;;;;;;;;;;;18.27;49.07;102386.00;4999315;28;19917;-78
2022/03/15 18:41:00;;;;;;;;;;;;;;;18.27;48.98;102391.22;4999414;28;19925;-78
2022/03/15 18:43:26;;;;;;;;;;;;;;;18.27;48.92;102393.81;4999702;28;19918;-78
2022/03/15 18:45:57;;;;;;;;;;;;;;;18.26;48.92;102386.84;4999117;28;20378;-77
2022/03/15 18:48:23;;;;;;;;;;;;;;;18.25;49.02;102392.91;4999941;28;19997;-77
2022/03/15 18:50:53;;;;;;;;;;;;;;;18.23;48.89;102403.31;5001371;28;19971;-77
2022/03/15 18:53:21;;;;;;;;;;;;;;;18.24;48.92;102401.56;5011639;28;19944;-84
2022/03/15 18:55:47;;;;;;;;;;;;;;;18.23;49.18;102395.50;5004916;28;19918;-84
2022/03/15 18:58:14;;;;;;;;;;;;;;;18.22;49.18;102406.75;5020314;28;19921;-84
2022/03/15 19:00:40;;;;;;;;;;;;;;;18.19;49.29;102406.72;5039122;28;19906;-84
2022/03/15 19:03:08;;;;;;;;;;;;;;;18.19;49.08;102406.72;5006258;28;19912;-84
2022/03/15 19:05:35;;;;;;;;;;;;;;;18.19;49.08;102408.47;5011705;28;19918;-77
2022/03/15 19:08:01;;;;;;;;;;;;;;;18.18;49.31;102409.31;4982444;28;19968;-77
2022/03/15 19:10:27;;;;;;;;;;;;;;;18.18;49.11;102410.19;4999085;28;19963;-76
2022/03/15 19:13:03;;;;;;;;;;;;;;;18.18;49.12;102411.91;4998687;28;20284;-77
2022/03/15 19:15:29;;;;;;;;;;;;;;;18.18;49.00;102415.41;4998610;28;19924;-77
2022/03/15 19:18:00;;;;;;;;;;;;;;;18.18;49.04;102423.22;5005032;28;19918;-77
2022/03/15 19:20:25;;;;;;;;;;;;;;;18.17;49.10;102418.00;5004798;28;19947;-76
2022/03/15 19:22:51;;;;;;;;;;;;;;;18.16;49.06;102418.81;4988614;28;19996;-76
2022/03/15 19:25:17;;;;;;;;;;;;;;;18.15;48.83;102423.16;4986107;28;19960;-76
2022/03/15 19:27:43;;;;;;;;;;;;;;;18.15;48.91;102422.31;5000804;28;19921;-76
2022/03/15 19:30:09;;;;;;;;;;;;;;;18.16;48.90;102424.03;5020113;28;19920;-76
2022/03/15 19:32:41;;;;;;;;;;;;;;;18.14;48.94;102424.03;5001293;28;19914;-77
2022/03/15 19:35:08;;;;;;;;;;;;;;;18.14;49.02;102418.84;5018074;28;19913;-76
2022/03/15 19:37:33;;;;;;;;;;;;;;;18.14;48.70;102413.63;5017312;28;20307;-77
2022/03/15 19:40:03;;;;;;;;;;;;;;;18.13;48.73;102417.06;4983440;28;20286;-77
2022/03/15 19:42:30;;;;;;;;;;;;;;;18.12;48.79;102417.03;4999792;28;19924;-77
2022/03/15 19:44:56;;;;;;;;;;;;;;;18.13;48.79;102424.00;4999061;28;19917;-77
2022/03/15 19:47:25;;;;;;;;;;;;;;;18.12;48.62;102420.53;4998953;28;20279;-76
2022/03/15 19:49:51;;;;;;;;;;;;;;;18.12;48.68;102433.56;4999413;28;19918;-76
2022/03/15 19:52:16;;;;;;;;;;;;;;;18.11;48.77;102441.34;4999348;28;20009;-76
2022/03/15 19:54:44;;;;;;;;;;;;;;;18.12;48.54;102435.28;5000048;28;19917;-77
2022/03/15 19:57:09;;;;;;;;;;;;;;;18.10;48.65;102435.28;5016548;28;19921;-77
2022/03/15 19:59:35;;;;;;;;;;;;;;;18.11;48.58;102438.75;4971069;28;20072;-77
2022/03/15 20:02:01;;;;;;;;;;;;;;;18.10;48.38;102432.66;4978155;28;19922;-76
2022/03/15 20:04:27;;;;;;;;;;;;;;;18.09;48.53;102431.81;4980322;28;19925;-77
2022/03/15 20:06:56;;;;;;;;;;;;;;;18.09;48.41;102433.50;4979507;28;19925;-77
2022/03/15 20:09:21;;;;;;;;;;;;;;;18.08;48.36;102430.03;4961970;28;19918;-76
2022/03/15 20:11:49;;;;;;;;;;;;;;;18.08;48.21;102435.25;4980065;28;19914;-77
2022/03/15 20:14:15;;;;;;;;;;;;;;;18.08;48.29;102431.78;4978881;28;20361;-77
2022/03/15 20:16:43;;;;;;;;;;;;;;;18.08;48.47;102434.38;4944670;28;19929;-77